![]() |
EMODnet Physics ERDDAP
Easier access to scientific data |
log in|
Brought to you by EMODnet Physics |
| Dataset Title: | NDBC - Collection of dew point temperature (DEWT) TimeSeries - IN SITU MultiPointTimeSeriesObservation
|
| Institution: | NDBC (Dataset ID: TS_DEWT_NDBC) |
| Information: | Summary
| License
| FGDC
| ISO 19115
| Metadata
| Background
| Subset
| Data Access Form
| Make a graph
|
| Name | Last modified | Size | Description | |
|---|---|---|---|---|
| Parent Directory | - | - | ||
| TIBC1_TS_DEWT_012007.nc | 25-Dec-2024 12:10 | 448803 | ||
| TIBC1_TS_DEWT_012008.nc | 25-Dec-2024 12:13 | 444726 | ||
| TIBC1_TS_DEWT_012009.nc | 25-Dec-2024 12:19 | 448251 | ||
| TIBC1_TS_DEWT_012010.nc | 25-Dec-2024 12:24 | 448196 | ||
| TIBC1_TS_DEWT_012011.nc | 25-Dec-2024 12:30 | 447256 | ||
| TIBC1_TS_DEWT_012012.nc | 25-Dec-2024 12:33 | 448041 | ||
| TIBC1_TS_DEWT_022007.nc | 25-Dec-2024 12:11 | 447472 | ||
| TIBC1_TS_DEWT_022008.nc | 25-Dec-2024 12:14 | 447096 | ||
| TIBC1_TS_DEWT_022009.nc | 25-Dec-2024 12:19 | 447043 | ||
| TIBC1_TS_DEWT_022010.nc | 25-Dec-2024 12:25 | 421118 | ||
| TIBC1_TS_DEWT_022011.nc | 25-Dec-2024 12:30 | 447169 | ||
| TIBC1_TS_DEWT_022012.nc | 25-Dec-2024 12:33 | 1107753 | ||
| TIBC1_TS_DEWT_022026.nc | 19-Mar-2026 16:39 | 437413 | ||
| TIBC1_TS_DEWT_032007.nc | 25-Dec-2024 12:11 | 1026349 | ||
| TIBC1_TS_DEWT_032008.nc | 25-Dec-2024 12:14 | 1026058 | ||
| TIBC1_TS_DEWT_032009.nc | 25-Dec-2024 12:20 | 1076843 | ||
| TIBC1_TS_DEWT_032010.nc | 25-Dec-2024 12:25 | 5143353 | ||
| TIBC1_TS_DEWT_032011.nc | 25-Dec-2024 12:30 | 440604 | ||
| TIBC1_TS_DEWT_032012.nc | 25-Dec-2024 12:34 | 449765 | ||
| TIBC1_TS_DEWT_032023.nc | 25-Dec-2024 13:00 | 450293 | ||
| TIBC1_TS_DEWT_032025.nc | 02-Apr-2025 08:17 | 450565 | ||
| TIBC1_TS_DEWT_032026.nc | 24-Mar-2026 16:01 | 450309 | ||
| TIBC1_TS_DEWT_042007.nc | 25-Dec-2024 12:11 | 451355 | ||
| TIBC1_TS_DEWT_042008.nc | 25-Dec-2024 12:15 | 450162 | ||
| TIBC1_TS_DEWT_042009.nc | 25-Dec-2024 12:20 | 450874 | ||
| TIBC1_TS_DEWT_042010.nc | 25-Dec-2024 12:26 | 450885 | ||
| TIBC1_TS_DEWT_042011.nc | 25-Dec-2024 12:31 | 449524 | ||
| TIBC1_TS_DEWT_042012.nc | 25-Dec-2024 12:34 | 449881 | ||
| TIBC1_TS_DEWT_042013.nc | 25-Dec-2024 12:35 | 450040 | ||
| TIBC1_TS_DEWT_042023.nc | 25-Dec-2024 13:01 | 450248 | ||
| TIBC1_TS_DEWT_042025.nc | 01-May-2025 07:36 | 449913 | ||
| TIBC1_TS_DEWT_052007.nc | 25-Dec-2024 12:11 | 449930 | ||
| TIBC1_TS_DEWT_052008.nc | 25-Dec-2024 12:15 | 451389 | ||
| TIBC1_TS_DEWT_052009.nc | 25-Dec-2024 12:21 | 450578 | ||
| TIBC1_TS_DEWT_052010.nc | 25-Dec-2024 12:26 | 449865 | ||
| TIBC1_TS_DEWT_052011.nc | 25-Dec-2024 12:31 | 449910 | ||
| TIBC1_TS_DEWT_052012.nc | 25-Dec-2024 12:34 | 1262437 | ||
| TIBC1_TS_DEWT_052013.nc | 25-Dec-2024 12:35 | 1006567 | ||
| TIBC1_TS_DEWT_052023.nc | 25-Dec-2024 13:01 | 1264108 | ||
| TIBC1_TS_DEWT_052025.nc | 01-Jun-2025 08:51 | 1263705 | ||
| TIBC1_TS_DEWT_062007.nc | 25-Dec-2024 12:11 | 1163866 | ||
| TIBC1_TS_DEWT_062008.nc | 25-Dec-2024 12:16 | 3818213 | ||
| TIBC1_TS_DEWT_062010.nc | 25-Dec-2024 12:26 | 448898 | ||
| TIBC1_TS_DEWT_062011.nc | 25-Dec-2024 12:31 | 449151 | ||
| TIBC1_TS_DEWT_062013.nc | 25-Dec-2024 12:35 | 449036 | ||
| TIBC1_TS_DEWT_062023.nc | 25-Dec-2024 13:02 | 450738 | ||
| TIBC1_TS_DEWT_062025.nc | 01-Jul-2025 07:16 | 448672 | ||
| TIBC1_TS_DEWT_072006.nc | 25-Dec-2024 12:09 | 449408 | ||
| TIBC1_TS_DEWT_072007.nc | 25-Dec-2024 12:11 | 448875 | ||
| TIBC1_TS_DEWT_072008.nc | 25-Dec-2024 12:16 | 450105 | ||
| TIBC1_TS_DEWT_072009.nc | 25-Dec-2024 12:22 | 450167 | ||
| TIBC1_TS_DEWT_072010.nc | 25-Dec-2024 12:27 | 449397 | ||
| TIBC1_TS_DEWT_072011.nc | 25-Dec-2024 12:31 | 450369 | ||
| TIBC1_TS_DEWT_072023.nc | 25-Dec-2024 13:02 | 449627 | ||
| TIBC1_TS_DEWT_072025.nc | 01-Aug-2025 07:53 | 448959 | ||
| TIBC1_TS_DEWT_082006.nc | 25-Dec-2024 12:09 | 448848 | ||
| TIBC1_TS_DEWT_082007.nc | 25-Dec-2024 12:11 | 448656 | ||
| TIBC1_TS_DEWT_082008.nc | 25-Dec-2024 12:17 | 448924 | ||
| TIBC1_TS_DEWT_082009.nc | 25-Dec-2024 12:22 | 449442 | ||
| TIBC1_TS_DEWT_082010.nc | 25-Dec-2024 12:27 | 449608 | ||
| TIBC1_TS_DEWT_082011.nc | 25-Dec-2024 12:32 | 1111358 | ||
| TIBC1_TS_DEWT_082012.nc | 25-Dec-2024 12:34 | 1111709 | ||
| TIBC1_TS_DEWT_082023.nc | 25-Dec-2024 13:03 | 1111298 | ||
| TIBC1_TS_DEWT_082024.nc | 09-Jan-2025 12:35 | 1111687 | ||
| TIBC1_TS_DEWT_082025.nc | 01-Sep-2025 09:01 | 995757 | ||
| TIBC1_TS_DEWT_092006.nc | 25-Dec-2024 12:10 | 450365 | ||
| TIBC1_TS_DEWT_092007.nc | 25-Dec-2024 12:12 | 449852 | ||
| TIBC1_TS_DEWT_092008.nc | 25-Dec-2024 12:17 | 450915 | ||
| TIBC1_TS_DEWT_092009.nc | 25-Dec-2024 12:22 | 450796 | ||
| TIBC1_TS_DEWT_092010.nc | 25-Dec-2024 12:28 | 449946 | ||
| TIBC1_TS_DEWT_092011.nc | 25-Dec-2024 12:32 | 450602 | ||
| TIBC1_TS_DEWT_092012.nc | 25-Dec-2024 12:34 | 450962 | ||
| TIBC1_TS_DEWT_092022.nc | 25-Dec-2024 12:59 | 449809 | ||
| TIBC1_TS_DEWT_092023.nc | 25-Dec-2024 13:03 | 450339 | ||
| TIBC1_TS_DEWT_092024.nc | 10-Jan-2025 22:49 | 433455 | ||
| TIBC1_TS_DEWT_092025.nc | 02-Oct-2025 06:13 | 450567 | ||
| TIBC1_TS_DEWT_102006.nc | 25-Dec-2024 12:10 | 451123 | ||
| TIBC1_TS_DEWT_102007.nc | 25-Dec-2024 12:12 | 449390 | ||
| TIBC1_TS_DEWT_102008.nc | 25-Dec-2024 12:18 | 450355 | ||
| TIBC1_TS_DEWT_102009.nc | 25-Dec-2024 12:23 | 450748 | ||
| TIBC1_TS_DEWT_102010.nc | 25-Dec-2024 12:28 | 449782 | ||
| TIBC1_TS_DEWT_102011.nc | 25-Dec-2024 12:32 | 450927 | ||
| TIBC1_TS_DEWT_102022.nc | 25-Dec-2024 12:59 | 450422 | ||
| TIBC1_TS_DEWT_102023.nc | 25-Dec-2024 13:04 | 449852 | ||
| TIBC1_TS_DEWT_102024.nc | 11-Jan-2025 03:00 | 450961 | ||
| TIBC1_TS_DEWT_102025.nc | 15-Nov-2025 11:28 | 449798 | ||
| TIBC1_TS_DEWT_112006.nc | 25-Dec-2024 12:10 | 1265336 | ||
| TIBC1_TS_DEWT_112007.nc | 25-Dec-2024 12:12 | 1264594 | ||
| TIBC1_TS_DEWT_112008.nc | 25-Dec-2024 12:18 | 1267831 | ||
| TIBC1_TS_DEWT_112009.nc | 25-Dec-2024 12:23 | 1265932 | ||
| TIBC1_TS_DEWT_112010.nc | 25-Dec-2024 12:28 | 450054 | ||
| TIBC1_TS_DEWT_112011.nc | 25-Dec-2024 12:32 | 448206 | ||
| TIBC1_TS_DEWT_112022.nc | 25-Dec-2024 13:00 | 449266 | ||
| TIBC1_TS_DEWT_112023.nc | 25-Dec-2024 13:04 | 450588 | ||
| TIBC1_TS_DEWT_122006.nc | 25-Dec-2024 12:10 | 449215 | ||
| TIBC1_TS_DEWT_122007.nc | 25-Dec-2024 12:13 | 448750 | ||
| TIBC1_TS_DEWT_122008.nc | 25-Dec-2024 12:19 | 448268 | ||
| TIBC1_TS_DEWT_122009.nc | 25-Dec-2024 12:24 | 448844 | ||
| TIBC1_TS_DEWT_122010.nc | 25-Dec-2024 12:29 | 448494 | ||
| TIBC1_TS_DEWT_122011.nc | 25-Dec-2024 12:33 | 449456 | ||
| TIBC1_TS_DEWT_122012.nc | 25-Dec-2024 12:35 | 449547 | ||
| TIBC1_TS_DEWT_122022.nc | 25-Dec-2024 13:00 | 448032 | ||
| TIBC1_TS_DEWT_122023.nc | 25-Dec-2024 13:04 | 448926 | ||